Terminal Aerodrome Forecast
Issued by NWS St Louis, MO

Home | Current Version | Previous Version | Text Only | Print | Product List | Glossary On
Versions: 1 2 3 4 5 6 7 8 9 10 11 12 13 14 15 16 17
000
FTUS43 KLSX 091140
TAFCOU
TAF
KCOU 091140Z 0912/1012 31012G20KT P6SM BKN035
     FM091500 32015G25KT P6SM BKN035
     FM091800 32014G24KT P6SM SCT040
     FM100000 29006KT P6SM SKC
     FM100600 23006KT P6SM SCT250=

USA.gov is the U.S. government's official web portal to all federal, state and local government web resources and services.